createdAt,value
2018-10-17T00:00:19.843Z,35.20
2018-10-17T00:02:52.081Z,34.80
2018-10-17T00:05:24.084Z,34.00
2018-10-17T00:07:55.915Z,34.00
2018-10-17T00:10:27.850Z,36.40
2018-10-17T00:12:59.795Z,34.60
2018-10-17T00:15:32.346Z,35.40
2018-10-17T00:18:04.484Z,38.00
2018-10-17T00:20:36.282Z,37.00
2018-10-17T00:23:08.274Z,34.20
2018-10-17T00:25:40.189Z,36.60
2018-10-17T00:28:12.577Z,35.20
2018-10-17T00:30:44.606Z,37.60
2018-10-17T00:33:16.868Z,36.00
2018-10-17T00:35:49.143Z,36.40
2018-10-17T00:38:21.291Z,29.80
2018-10-17T00:40:53.453Z,37.00
2018-10-17T00:43:25.632Z,37.20
2018-10-17T00:45:58.142Z,36.60
2018-10-17T00:48:30.123Z,38.00
2018-10-17T00:51:02.616Z,37.00
2018-10-17T00:53:34.452Z,37.20
2018-10-17T00:56:06.763Z,37.00
2018-10-17T00:58:38.805Z,38.00
2018-10-17T01:01:10.597Z,41.60
2018-10-17T01:03:42.860Z,123.75
2018-10-17T01:06:14.694Z,112.50
2018-10-17T01:08:46.639Z,193.20
2018-10-17T01:11:18.594Z,163.75
2018-10-17T01:13:50.916Z,87.80
2018-10-17T01:16:23.365Z,203.40
2018-10-17T01:18:55.454Z,198.00
2018-10-17T01:21:27.246Z,198.60
2018-10-17T01:23:59.242Z,184.40
2018-10-17T01:26:31.153Z,183.40
2018-10-17T01:29:04.739Z,165.00
2018-10-17T01:31:36.631Z,125.75
2018-10-17T01:34:08.749Z,116.50
2018-10-17T01:36:40.924Z,103.40
2018-10-17T01:39:13.059Z,91.00
2018-10-17T01:41:44.827Z,93.20
2018-10-17T01:44:16.837Z,90.20
2018-10-17T01:46:49.469Z,87.80
2018-10-17T01:49:21.594Z,95.40
2018-10-17T01:51:53.540Z,98.20
2018-10-17T01:54:25.609Z,108.75
2018-10-17T01:56:57.538Z,110.75
2018-10-17T01:59:29.611Z,116.50
2018-10-17T02:02:01.830Z,114.25
2018-10-17T02:04:33.762Z,112.50
2018-10-17T02:07:06.015Z,94.20
2018-10-17T02:09:37.959Z,84.60
2018-10-17T02:12:09.995Z,81.40
2018-10-17T02:14:41.915Z,86.60
2018-10-17T02:17:14.882Z,75.20
2018-10-17T02:19:47.002Z,63.80
2018-10-17T02:22:19.114Z,67.60
2018-10-17T02:24:51.550Z,63.80
2018-10-17T02:27:23.330Z,58.80
2018-10-17T02:29:55.677Z,63.40
2018-10-17T02:32:27.541Z,63.60
2018-10-17T02:35:04.418Z,57.40
2018-10-17T02:37:36.379Z,68.20
2018-10-17T02:40:07.931Z,68.40
2018-10-17T02:42:40.095Z,69.20
2018-10-17T02:45:14.260Z,68.80
2018-10-17T02:47:47.155Z,69.80
2018-10-17T02:50:19.282Z,72.40
2018-10-17T02:52:52.527Z,71.60
2018-10-17T02:55:24.594Z,75.20
2018-10-17T02:57:57.457Z,61.40
2018-10-17T03:00:29.948Z,76.80
2018-10-17T03:03:02.004Z,74.60
2018-10-17T03:05:34.230Z,70.40
2018-10-17T03:08:06.539Z,75.60
2018-10-17T03:10:38.895Z,73.20
2018-10-17T03:13:11.090Z,76.20
2018-10-17T03:15:43.340Z,78.00
2018-10-17T03:18:15.993Z,73.80
2018-10-17T03:20:48.311Z,78.80
2018-10-17T03:23:20.183Z,75.40
2018-10-17T03:25:52.280Z,74.40
2018-10-17T03:28:24.543Z,76.00
2018-10-17T03:30:57.752Z,72.20
2018-10-17T03:33:30.732Z,77.40
2018-10-17T03:36:03.000Z,71.00
2018-10-17T03:38:35.187Z,75.00
2018-10-17T03:41:07.647Z,75.60
2018-10-17T03:43:39.867Z,81.00
2018-10-17T03:46:12.008Z,78.00
2018-10-17T03:48:44.860Z,73.80
2018-10-17T03:51:17.139Z,72.00
2018-10-17T03:53:49.114Z,75.80
2018-10-17T03:56:21.252Z,74.40
2018-10-17T03:58:53.343Z,71.40
2018-10-17T04:01:25.575Z,76.40
2018-10-17T04:03:57.717Z,68.40
2018-10-17T04:06:29.967Z,69.00
2018-10-17T04:09:01.739Z,75.80
2018-10-17T04:11:34.103Z,67.00
2018-10-17T04:14:06.254Z,73.20
2018-10-17T04:16:38.361Z,53.60
2018-10-17T04:19:10.892Z,59.80
2018-10-17T04:21:43.171Z,64.60
2018-10-17T04:24:15.067Z,66.00
2018-10-17T04:26:47.532Z,64.00
2018-10-17T04:29:19.844Z,57.60
2018-10-17T04:31:52.311Z,57.60
2018-10-17T04:34:24.805Z,51.40
2018-10-17T04:36:56.914Z,56.40
2018-10-17T04:39:28.961Z,57.60
2018-10-17T04:42:01.393Z,57.20
2018-10-17T04:44:33.814Z,54.60
2018-10-17T04:47:06.179Z,53.40
2018-10-17T04:49:39.298Z,56.60
2018-10-17T04:52:11.816Z,57.20
2018-10-17T04:54:44.023Z,59.80
2018-10-17T04:57:16.196Z,53.20
2018-10-17T04:59:48.293Z,51.60
2018-10-17T05:02:20.514Z,55.00
2018-10-17T05:04:53.068Z,55.00
2018-10-17T05:07:25.614Z,53.20
2018-10-17T05:09:57.866Z,50.40
2018-10-17T05:12:32.336Z,51.80
2018-10-17T05:17:26.385Z,50.80
2018-10-17T05:19:59.666Z,50.00
2018-10-17T05:22:31.374Z,47.40
2018-10-17T05:37:34.045Z,40.80
2018-10-17T05:40:06.092Z,43.40
2018-10-17T05:42:38.052Z,42.20
2018-10-17T05:45:10.932Z,40.60
2018-10-17T05:47:42.835Z,42.60
2018-10-17T05:50:15.108Z,38.00
2018-10-17T05:52:46.828Z,36.60
2018-10-17T05:55:22.223Z,41.80
2018-10-17T05:57:54.803Z,37.60
2018-10-17T06:00:26.825Z,43.00
2018-10-17T06:02:59.168Z,41.60
2018-10-17T06:05:31.418Z,36.80
2018-10-17T06:10:43.484Z,35.40
2018-10-17T06:13:15.538Z,35.00
2018-10-17T06:15:47.912Z,38.40
2018-10-17T06:18:19.851Z,34.20
2018-10-17T06:20:52.710Z,33.00
2018-10-17T06:23:25.022Z,32.60
2018-10-17T06:25:56.868Z,29.60
2018-10-17T06:28:29.146Z,33.40
2018-10-17T06:31:01.340Z,30.60
2018-10-17T06:33:33.558Z,34.20
2018-10-17T06:36:05.864Z,34.20
2018-10-17T06:38:38.084Z,33.20
2018-10-17T06:41:10.353Z,33.20
2018-10-17T06:43:42.361Z,31.40
2018-10-17T06:46:14.868Z,31.00
2018-10-17T06:48:46.977Z,32.80
2018-10-17T06:51:19.393Z,30.60
2018-10-17T06:53:51.636Z,31.40
2018-10-17T06:56:23.929Z,30.80
2018-10-17T06:58:56.305Z,31.60
2018-10-17T07:01:28.581Z,29.80
2018-10-17T07:04:01.074Z,30.80
2018-10-17T07:06:33.240Z,30.20
2018-10-17T07:09:05.755Z,32.00
2018-10-17T07:11:38.128Z,27.60
2018-10-17T07:14:10.384Z,26.80
2018-10-17T07:16:42.743Z,26.60
2018-10-17T07:19:14.872Z,28.60
2018-10-17T07:21:47.425Z,23.40
2018-10-17T07:24:19.566Z,24.40
2018-10-17T07:26:51.832Z,21.20
2018-10-17T07:29:23.843Z,23.40
2018-10-17T07:31:55.923Z,23.00
2018-10-17T07:34:28.047Z,25.60
2018-10-17T07:37:00.228Z,23.40
2018-10-17T07:39:32.224Z,24.40
2018-10-17T07:42:04.453Z,23.60
2018-10-17T07:44:36.452Z,23.00
2018-10-17T07:47:08.493Z,21.80
2018-10-17T07:49:40.621Z,24.20
2018-10-17T07:52:13.076Z,25.00
2018-10-17T07:54:45.073Z,25.00
2018-10-17T07:57:17.282Z,23.20
2018-10-17T07:59:49.200Z,26.00
2018-10-17T08:02:21.328Z,23.60
2018-10-17T08:04:53.477Z,22.20
2018-10-17T08:07:25.475Z,25.80
2018-10-17T08:09:57.269Z,22.00
2018-10-17T08:12:29.315Z,23.20
2018-10-17T08:15:01.371Z,25.80
2018-10-17T08:17:33.534Z,23.20
2018-10-17T08:20:05.586Z,24.40
2018-10-17T08:25:17.603Z,23.00
2018-10-17T08:27:49.702Z,23.40
2018-10-17T08:33:32.606Z,25.00
2018-10-17T08:36:04.917Z,23.00
2018-10-17T08:38:37.085Z,25.00
2018-10-17T08:41:09.135Z,23.20
2018-10-17T08:43:41.552Z,25.60
2018-10-17T08:46:14.616Z,25.00
2018-10-17T08:48:47.129Z,25.00
2018-10-17T08:51:19.254Z,25.00
2018-10-17T08:53:51.850Z,24.80
2018-10-17T08:56:23.960Z,23.60
2018-10-17T08:58:56.009Z,23.00
2018-10-17T09:01:28.212Z,23.00
2018-10-17T09:04:02.303Z,21.20
2018-10-17T09:06:34.320Z,27.00
2018-10-17T09:09:10.369Z,26.00
2018-10-17T09:11:42.620Z,26.20
2018-10-17T09:14:14.967Z,26.00
2018-10-17T09:16:47.193Z,26.20
2018-10-17T09:19:19.588Z,24.80
2018-10-17T09:21:52.054Z,23.00
2018-10-17T09:24:24.429Z,27.40
2018-10-17T09:26:56.430Z,27.40
2018-10-17T09:29:28.807Z,27.20
2018-10-17T09:32:01.593Z,27.40
2018-10-17T09:34:33.809Z,27.00
2018-10-17T09:37:05.911Z,26.00
2018-10-17T09:39:38.228Z,26.80
2018-10-17T09:42:10.457Z,25.00
2018-10-17T09:44:42.772Z,26.00
2018-10-17T09:47:14.731Z,29.20
2018-10-17T09:49:46.648Z,28.40
2018-10-17T09:52:18.670Z,26.20
2018-10-17T09:54:51.173Z,27.40
2018-10-17T09:57:24.205Z,28.80
2018-10-17T09:59:56.340Z,27.20
2018-10-17T10:02:28.497Z,27.00
2018-10-17T10:05:00.867Z,27.60
2018-10-17T10:07:32.866Z,29.00
2018-10-17T10:10:04.896Z,30.00
2018-10-17T10:12:37.120Z,30.00
2018-10-17T10:15:09.333Z,30.80
2018-10-17T10:17:41.470Z,31.20
2018-10-17T10:20:13.662Z,29.20
2018-10-17T10:22:45.742Z,32.20
2018-10-17T10:25:18.588Z,31.80
2018-10-17T10:27:50.614Z,30.80
2018-10-17T10:30:22.456Z,30.80
2018-10-17T10:32:54.576Z,32.60
2018-10-17T10:35:27.060Z,32.00
2018-10-17T10:37:59.054Z,31.60
2018-10-17T10:40:31.203Z,30.00
2018-10-17T10:43:03.508Z,31.60
2018-10-17T10:45:35.843Z,32.00
2018-10-17T10:48:08.061Z,29.40
2018-10-17T10:50:40.412Z,29.00
2018-10-17T10:53:12.525Z,30.00
2018-10-17T10:55:44.838Z,28.20
2018-10-17T10:58:17.346Z,30.00
2018-10-17T11:00:49.533Z,29.00
2018-10-17T11:03:21.313Z,29.00
2018-10-17T11:05:53.507Z,29.00
2018-10-17T11:08:25.491Z,28.80
2018-10-17T11:10:57.814Z,28.40
2018-10-17T11:13:29.724Z,30.00
2018-10-17T11:16:01.885Z,29.40
2018-10-17T11:18:33.826Z,29.40
2018-10-17T11:21:06.032Z,29.00
2018-10-17T11:23:38.181Z,30.20
2018-10-17T11:26:11.131Z,30.20
2018-10-17T11:28:43.377Z,29.60
2018-10-17T11:31:15.464Z,29.80
2018-10-17T11:33:47.545Z,30.20
2018-10-17T11:36:19.663Z,31.00
2018-10-17T11:38:51.828Z,31.20
2018-10-17T11:41:24.032Z,32.00
2018-10-17T11:43:56.132Z,33.00
2018-10-17T11:46:28.369Z,31.40
2018-10-17T11:49:00.842Z,30.80
2018-10-17T11:51:33.049Z,31.60
2018-10-17T11:54:05.158Z,30.00
2018-10-17T11:56:37.801Z,31.20
2018-10-17T11:59:11.160Z,30.60
2018-10-17T12:01:43.131Z,31.40
2018-10-17T12:04:15.375Z,31.00
2018-10-17T12:06:47.440Z,31.20
2018-10-17T12:09:19.483Z,27.00
2018-10-17T12:11:51.675Z,31.80
2018-10-17T12:14:23.782Z,30.60
2018-10-17T12:16:55.742Z,32.40
2018-10-17T12:19:28.037Z,31.80
2018-10-17T12:22:00.245Z,33.60
2018-10-17T12:24:32.959Z,32.00
2018-10-17T12:27:05.421Z,30.60
2018-10-17T12:29:37.579Z,30.60
2018-10-17T12:32:09.898Z,32.20
2018-10-17T12:34:41.849Z,33.20
2018-10-17T12:37:13.952Z,34.20
2018-10-17T12:39:46.273Z,36.40
2018-10-17T12:42:18.449Z,34.00
2018-10-17T12:44:50.520Z,35.60
2018-10-17T12:47:22.789Z,35.60
2018-10-17T12:49:54.963Z,34.00
2018-10-17T12:52:27.228Z,32.80
2018-10-17T12:54:58.780Z,31.00
2018-10-17T12:57:31.998Z,28.60
2018-10-17T13:00:04.062Z,32.20
2018-10-17T13:02:36.154Z,33.00
2018-10-17T13:05:09.024Z,32.20
2018-10-17T13:07:41.124Z,32.20
2018-10-17T13:10:13.353Z,32.80
2018-10-17T13:12:45.566Z,35.00
2018-10-17T13:15:17.536Z,32.80
2018-10-17T13:17:49.480Z,31.40
2018-10-17T13:20:21.808Z,34.20
2018-10-17T13:22:54.023Z,36.40
2018-10-17T13:25:26.059Z,35.00
2018-10-17T13:27:58.795Z,37.40
2018-10-17T13:30:31.345Z,36.20
2018-10-17T13:33:03.198Z,38.00
2018-10-17T13:35:35.109Z,39.80
2018-10-17T13:38:07.076Z,40.80
2018-10-17T13:43:14.931Z,45.00
2018-10-17T13:45:46.928Z,40.20
2018-10-17T13:48:19.162Z,42.80
2018-10-17T13:53:03.436Z,36.80
2018-10-17T13:55:35.590Z,41.60
2018-10-17T13:58:08.706Z,40.00
2018-10-17T14:00:41.119Z,40.40
2018-10-17T14:03:13.149Z,35.20
2018-10-17T14:05:45.126Z,42.20
2018-10-17T14:08:17.287Z,39.40
2018-10-17T14:10:49.727Z,42.00
2018-10-17T14:13:22.406Z,40.60
2018-10-17T14:15:54.120Z,35.40
2018-10-17T14:18:25.890Z,41.60
2018-10-17T14:20:57.493Z,39.40
2018-10-17T14:23:29.369Z,40.60
2018-10-17T14:26:01.456Z,37.00
2018-10-17T14:28:34.075Z,41.00
2018-10-17T14:31:06.405Z,43.00
2018-10-17T14:33:38.389Z,45.20
2018-10-17T14:36:10.500Z,40.20
2018-10-17T14:38:42.641Z,37.60
2018-10-17T14:41:14.802Z,40.20
2018-10-17T14:43:46.802Z,39.80
2018-10-17T14:46:19.029Z,41.60
2018-10-17T14:48:50.816Z,43.00
2018-10-17T14:51:23.068Z,45.80
2018-10-17T14:53:54.854Z,44.00
2018-10-17T14:56:27.678Z,46.20
2018-10-17T14:59:00.164Z,46.00
2018-10-17T15:01:32.529Z,42.40
2018-10-17T15:04:04.268Z,45.00
2018-10-17T15:06:36.373Z,47.00
2018-10-17T15:09:10.287Z,46.80
2018-10-17T15:11:42.619Z,45.00
2018-10-17T15:14:14.617Z,44.40
2018-10-17T15:16:46.727Z,46.00
2018-10-17T15:19:18.511Z,49.80
2018-10-17T15:22:05.297Z,50.60
2018-10-17T15:24:37.478Z,50.20
2018-10-17T15:27:09.774Z,50.80
2018-10-17T15:29:42.601Z,56.40
2018-10-17T15:32:14.697Z,54.40
2018-10-17T15:34:46.610Z,52.80
2018-10-17T15:37:18.780Z,53.80
2018-10-17T15:39:50.790Z,52.40
2018-10-17T15:42:22.719Z,57.20
2018-10-17T15:44:54.890Z,53.40
2018-10-17T15:47:27.131Z,60.40
2018-10-17T15:49:58.886Z,58.20
2018-10-17T15:52:31.068Z,56.80
2018-10-17T15:55:02.717Z,60.80
2018-10-17T15:57:35.123Z,58.80
2018-10-17T16:00:09.515Z,60.00
2018-10-17T16:02:41.883Z,63.40
2018-10-17T16:05:13.974Z,61.40
2018-10-17T16:07:45.821Z,64.00
2018-10-17T16:10:17.916Z,63.20
2018-10-17T16:12:50.130Z,65.00
2018-10-17T16:15:22.166Z,65.00
2018-10-17T16:17:54.305Z,65.60
2018-10-17T16:20:26.157Z,67.60
2018-10-17T16:22:58.599Z,63.60
2018-10-17T16:25:30.753Z,69.40
2018-10-17T16:28:02.929Z,68.60
2018-10-17T16:30:35.535Z,74.20
2018-10-17T16:33:07.609Z,77.20
2018-10-17T16:35:39.547Z,79.00
2018-10-17T16:38:11.692Z,73.60
2018-10-17T16:40:43.736Z,68.60
2018-10-17T16:43:16.045Z,65.60
2018-10-17T16:45:47.933Z,67.00
2018-10-17T16:48:20.208Z,65.00
2018-10-17T16:50:52.436Z,64.80
2018-10-17T16:53:24.598Z,64.00
2018-10-17T16:55:56.798Z,66.00
2018-10-17T16:58:29.485Z,68.20
2018-10-17T17:01:02.128Z,68.40
2018-10-17T17:03:34.283Z,69.80
2018-10-17T17:06:06.198Z,68.60
2018-10-17T17:08:38.506Z,69.20
2018-10-17T17:11:09.950Z,67.40
2018-10-17T17:13:41.597Z,72.00
2018-10-17T17:16:13.025Z,70.20
2018-10-17T17:18:45.284Z,69.00
2018-10-17T17:21:17.466Z,69.00
2018-10-17T17:23:49.644Z,68.60
2018-10-17T17:26:21.790Z,68.20
2018-10-17T17:28:53.967Z,66.00
2018-10-17T17:31:26.444Z,70.20
2018-10-17T17:33:59.682Z,66.80
2018-10-17T17:36:31.950Z,68.00
2018-10-17T17:39:04.675Z,69.60
2018-10-17T17:41:36.693Z,66.00
2018-10-17T17:44:08.503Z,69.20
2018-10-17T17:46:40.692Z,67.20
2018-10-17T17:49:12.861Z,70.00
2018-10-17T17:51:44.695Z,65.60
2018-10-17T17:54:16.828Z,66.20
2018-10-17T17:56:48.859Z,64.00
2018-10-17T17:59:22.570Z,64.20
2018-10-17T18:01:55.286Z,61.80
2018-10-17T18:04:27.623Z,65.40
2018-10-17T18:06:59.811Z,64.40
2018-10-17T18:09:31.572Z,68.20
2018-10-17T18:12:03.559Z,67.80
2018-10-17T18:14:35.825Z,67.60
2018-10-17T18:17:07.815Z,66.20
2018-10-17T18:19:40.035Z,69.00
2018-10-17T18:22:11.755Z,68.40
2018-10-17T18:24:43.889Z,67.60
2018-10-17T18:27:15.835Z,70.80
2018-10-17T18:29:48.108Z,72.20
2018-10-17T18:32:21.722Z,69.40
2018-10-17T18:34:53.875Z,67.60
2018-10-17T18:37:25.864Z,70.40
2018-10-17T18:39:57.794Z,68.20
2018-10-17T18:42:29.695Z,69.40
2018-10-17T18:45:01.899Z,68.00
2018-10-17T18:47:33.727Z,67.00
2018-10-17T18:50:05.884Z,67.80
2018-10-17T18:52:37.968Z,67.00
2018-10-17T18:55:10.200Z,71.20
2018-10-17T18:57:42.214Z,68.80
2018-10-17T19:00:15.388Z,69.80
2018-10-17T19:02:47.936Z,69.60
2018-10-17T19:05:19.937Z,70.00
2018-10-17T19:07:52.044Z,69.40
2018-10-17T19:10:24.173Z,70.00
2018-10-17T19:12:56.952Z,72.80
2018-10-17T19:15:29.020Z,72.60
2018-10-17T19:18:00.970Z,71.00
2018-10-17T19:20:33.038Z,70.00
2018-10-17T19:23:05.347Z,72.40
2018-10-17T19:25:37.620Z,68.60
2018-10-17T19:28:09.532Z,70.80
2018-10-17T19:30:41.644Z,68.80
2018-10-17T19:33:14.392Z,70.00
2018-10-17T19:35:46.665Z,73.60
2018-10-17T19:38:18.833Z,70.60
2018-10-17T19:40:51.103Z,66.80
2018-10-17T19:43:23.274Z,68.20
2018-10-17T19:45:55.380Z,65.20
2018-10-17T19:48:27.504Z,64.80
2018-10-17T19:51:00.075Z,66.00
2018-10-17T19:53:32.223Z,68.80
2018-10-17T19:56:04.426Z,69.80
2018-10-17T19:58:36.586Z,67.60
2018-10-17T20:01:09.571Z,64.20
2018-10-17T20:03:42.091Z,66.40
2018-10-17T20:06:14.276Z,66.00
2018-10-17T20:08:46.309Z,66.00
2018-10-17T20:11:18.839Z,69.00
2018-10-17T20:13:50.781Z,58.20
2018-10-17T20:16:22.777Z,69.00
2018-10-17T20:18:54.730Z,59.80
2018-10-17T20:21:26.974Z,67.60
2018-10-17T20:23:59.562Z,71.40
2018-10-17T20:26:31.981Z,64.60
2018-10-17T20:29:04.032Z,68.20
2018-10-17T20:31:36.016Z,62.20
2018-10-17T20:34:08.624Z,68.00
2018-10-17T20:36:40.748Z,68.00
2018-10-17T20:39:14.647Z,64.60
2018-10-17T20:41:46.702Z,65.20
2018-10-17T20:44:18.636Z,76.40
2018-10-17T20:46:50.968Z,76.20
2018-10-17T20:50:46.980Z,70.40
2018-10-17T20:53:19.086Z,65.60
2018-10-17T20:55:51.202Z,69.80
2018-10-17T20:58:23.169Z,67.60
2018-10-17T21:00:55.363Z,65.60
2018-10-17T21:03:27.542Z,67.20
2018-10-17T21:06:00.041Z,64.60
2018-10-17T21:08:32.030Z,62.80
2018-10-17T21:11:04.056Z,63.20
2018-10-17T21:13:36.315Z,63.20
2018-10-17T21:16:08.337Z,65.80
2018-10-17T21:18:40.434Z,67.00
2018-10-17T21:21:12.507Z,65.60
2018-10-17T21:23:44.721Z,65.40
2018-10-17T21:26:16.569Z,65.40
2018-10-17T21:28:48.614Z,65.20
2018-10-17T21:31:20.449Z,69.40
2018-10-17T21:33:52.524Z,65.40
2018-10-17T21:36:25.047Z,72.20
2018-10-17T21:38:57.144Z,66.80
2018-10-17T21:41:29.277Z,64.60
2018-10-17T21:44:01.934Z,70.40
2018-10-17T21:46:34.071Z,71.40
2018-10-17T21:49:06.197Z,72.80
2018-10-17T21:51:38.427Z,58.40
2018-10-17T21:54:10.499Z,71.00
2018-10-17T21:56:42.361Z,68.60
2018-10-17T21:59:14.418Z,70.60
2018-10-17T22:01:46.342Z,73.40
2018-10-17T22:04:18.948Z,77.60
2018-10-17T22:06:51.520Z,79.00
2018-10-17T22:09:23.733Z,82.40
2018-10-17T22:11:55.743Z,83.40
2018-10-17T22:14:27.887Z,87.20
2018-10-17T22:17:06.623Z,83.60
2018-10-17T22:19:39.581Z,83.60
2018-10-17T22:22:11.721Z,81.00
2018-10-17T22:24:43.921Z,75.60
2018-10-17T22:27:16.021Z,82.40
2018-10-17T22:29:47.907Z,82.60
2018-10-17T22:32:19.899Z,82.80
2018-10-17T22:34:51.959Z,74.80
2018-10-17T22:37:24.491Z,81.40
2018-10-17T22:39:56.737Z,85.80
2018-10-17T22:42:29.658Z,80.20
2018-10-17T22:45:01.734Z,82.00
2018-10-17T22:47:33.709Z,82.20
2018-10-17T22:50:05.865Z,82.40
2018-10-17T22:52:38.202Z,79.00
2018-10-17T22:55:15.166Z,78.20
2018-10-17T22:57:47.351Z,72.60
2018-10-17T23:00:19.450Z,82.00
2018-10-17T23:02:51.408Z,82.20
2018-10-17T23:05:23.447Z,77.00
2018-10-17T23:07:56.033Z,77.80
2018-10-17T23:10:28.718Z,75.60
2018-10-17T23:13:00.801Z,84.60
2018-10-17T23:15:32.996Z,77.80
2018-10-17T23:18:05.069Z,77.60
2018-10-17T23:20:37.327Z,79.40
2018-10-17T23:23:09.360Z,84.20
2018-10-17T23:27:05.652Z,85.80
2018-10-17T23:29:37.833Z,82.00
2018-10-17T23:32:09.911Z,82.60
2018-10-17T23:34:41.911Z,79.00
2018-10-17T23:37:14.067Z,79.20
2018-10-17T23:39:46.471Z,74.20
2018-10-17T23:42:19.241Z,84.80
2018-10-17T23:44:51.394Z,81.40
2018-10-17T23:47:23.260Z,76.40
2018-10-17T23:49:55.186Z,81.60
2018-10-17T23:52:27.187Z,84.20
2018-10-17T23:54:59.158Z,74.40
2018-10-17T23:57:31.528Z,83.60
